Time;durP1;ratioP1;P1;durP2;ratioP2;P2;SDS_P1;SDS_P2;PMS_P1;PMS_P2;Temp;Humidity;BMP_temperature;BMP_pressure;BME280_temperature;BME280_humidity;BME280_pressure;Samples;Min_cycle;Max_cycle;Signal;HPM_P1;HPM_P2
2022/08/09 00:00:57;;;;;;;6.20;2.30;;;;;;;23.25;47.33;98270.59;4995040;28;20688;-62
2022/08/09 00:03:23;;;;;;;4.38;2.38;;;;;;;23.21;47.17;98266.69;4995034;28;20688;-62
2022/08/09 00:05:49;;;;;;;6.50;2.40;;;;;;;23.16;47.11;98269.88;4995175;28;20176;-62
2022/08/09 00:08:14;;;;;;;5.35;2.75;;;;;;;23.05;47.27;98261.59;4995239;28;20187;-60
2022/08/09 00:10:40;;;;;;;5.05;2.10;;;;;;;23.08;47.04;98261.25;4994917;28;20179;-61
2022/08/09 00:13:07;;;;;;;4.85;2.10;;;;;;;23.06;47.82;98264.06;4995022;28;20183;-61
2022/08/09 00:15:33;;;;;;;3.55;2.42;;;;;;;23.01;47.63;98250.59;4994990;28;20203;-61
2022/08/09 00:17:58;;;;;;;3.78;2.15;;;;;;;22.99;47.72;98252.63;4994739;28;20213;-61
2022/08/09 00:20:23;;;;;;;4.88;2.42;;;;;;;23.05;47.50;98251.03;4994979;28;20189;-61
2022/08/09 00:22:49;;;;;;;1.92;1.83;;;;;;;23.05;47.30;98257.16;4994926;28;20168;-61
2022/08/09 00:25:15;;;;;;;5.20;2.40;;;;;;;22.87;48.02;98248.00;4994724;28;20171;-61
2022/08/09 00:27:43;;;;;;;3.17;2.45;;;;;;;22.85;47.67;98250.03;4994644;28;20237;-61
2022/08/09 00:30:09;;;;;;;3.08;2.53;;;;;;;22.77;47.97;98242.19;4993454;28;20180;-62
2022/08/09 00:32:35;;;;;;;5.32;2.40;;;;;;;22.88;47.82;98257.56;4994361;28;20219;-61
2022/08/09 00:35:01;;;;;;;2.50;2.30;;;;;;;22.88;48.01;98260.19;4994509;28;20199;-61
2022/08/09 00:37:27;;;;;;;4.32;2.10;;;;;;;22.98;46.62;98260.72;4994427;28;20179;-61
2022/08/09 00:39:52;;;;;;;3.83;2.40;;;;;;;23.03;47.48;98260.97;4994379;28;20175;-61
2022/08/09 00:42:18;;;;;;;2.83;2.10;;;;;;;22.87;47.74;98258.56;4994583;28;20241;-61
2022/08/09 00:44:43;;;;;;;2.60;2.40;;;;;;;22.82;47.88;98260.94;4994504;28;20175;-61
2022/08/09 00:47:09;;;;;;;2.47;2.15;;;;;;;22.71;47.79;98256.13;4994245;28;20175;-61
2022/08/09 00:49:35;;;;;;;4.55;2.47;;;;;;;22.71;48.07;98253.50;4994333;28;20210;-62
2022/08/09 00:52:00;;;;;;;2.42;2.20;;;;;;;22.74;48.04;98253.97;4994139;28;20183;-61
2022/08/09 00:54:26;;;;;;;2.47;1.98;;;;;;;22.72;48.24;98255.16;4994196;28;20544;-61
2022/08/09 00:56:51;;;;;;;3.15;2.33;;;;;;;22.64;47.90;98249.97;4993968;28;20218;-61
2022/08/09 00:59:17;;;;;;;4.63;2.40;;;;;;;22.73;47.46;98264.69;4994004;28;20229;-62
2022/08/09 01:01:43;;;;;;;5.40;2.17;;;;;;;22.76;47.28;98256.41;4993813;28;20179;-64
2022/08/09 01:04:26;;;;;;;2.90;2.00;;;;;;;22.76;47.66;98257.22;4994080;28;20593;-62
2022/08/09 01:07:30;;;;;;;3.13;2.50;;;;;;;22.64;47.86;98263.97;4994078;28;20242;-60
2022/08/09 01:10:17;;;;;;;2.80;2.03;;;;;;;22.59;48.32;98261.06;4992215;28;20322;-60
2022/08/09 01:12:55;;;;;;;4.07;2.45;;;;;;;22.52;48.64;98254.91;4993746;28;20246;-61
2022/08/09 01:15:27;;;;;;;3.72;2.42;;;;;;;22.44;49.09;98251.53;4993933;28;20668;-61
2022/08/09 01:18:06;;;;;;;4.03;2.40;;;;;;;22.49;48.67;98244.69;4993713;28;20182;-60
2022/08/09 01:20:59;;;;;;;3.13;2.10;;;;;;;22.55;48.09;98249.25;4993833;28;20182;-62
2022/08/09 01:23:46;;;;;;;2.55;2.35;;;;;;;22.55;48.27;98259.78;4993842;28;20594;-61
2022/08/09 01:26:32;;;;;;;2.90;2.50;;;;;;;22.54;48.72;98254.69;4993700;28;20166;-60
2022/08/09 01:29:00;;;;;;;2.70;2.50;;;;;;;22.51;48.39;98242.72;4993605;28;20155;-62
2022/08/09 01:31:29;;;;;;;3.55;2.13;;;;;;;22.56;48.21;98252.72;4993417;28;20182;-61
2022/08/09 01:33:59;;;;;;;4.70;2.33;;;;;;;22.50;47.96;98254.25;4993153;28;20207;-61
2022/08/09 01:36:27;;;;;;;4.72;2.30;;;;;;;22.42;48.07;98253.50;4993203;28;20199;-61
2022/08/09 01:38:53;;;;;;;4.18;2.25;;;;;;;22.41;47.88;98247.41;4993231;28;20181;-61
2022/08/09 01:41:19;;;;;;;2.30;2.15;;;;;;;22.41;47.83;98243.94;4993243;28;20617;-60
2022/08/09 01:43:49;;;;;;;4.93;2.40;;;;;;;22.45;47.78;98245.25;4993178;28;20231;-60
2022/08/09 01:46:15;;;;;;;4.88;2.42;;;;;;;22.39;48.09;98252.06;4993036;28;20171;-61
2022/08/09 01:48:41;;;;;;;2.60;2.40;;;;;;;22.38;47.54;98244.34;4993306;28;20179;-60
2022/08/09 01:51:08;;;;;;;2.47;2.20;;;;;;;22.37;47.44;98245.34;4993352;28;20183;-62
2022/08/09 01:53:36;;;;;;;2.63;2.38;;;;;;;22.40;48.24;98248.41;4993052;28;20179;-61
2022/08/09 01:56:04;;;;;;;4.97;2.38;;;;;;;22.36;48.02;98243.66;4992865;28;20205;-62
2022/08/09 01:58:31;;;;;;;6.00;2.50;;;;;;;22.37;48.26;98226.88;4992989;28;20723;-61
2022/08/09 02:00:58;;;;;;;5.10;2.42;;;;;;;22.34;48.00;98221.97;4992855;28;20724;-60
2022/08/09 02:03:28;;;;;;;6.07;2.45;;;;;;;22.34;47.96;98232.50;4992890;28;20206;-60
2022/08/09 02:05:55;;;;;;;4.13;2.38;;;;;;;22.37;47.73;98232.16;4993359;28;20171;-61
2022/08/09 02:08:22;;;;;;;4.82;2.30;;;;;;;22.30;47.73;98229.41;4991577;28;20626;-60
2022/08/09 02:10:51;;;;;;;2.38;2.15;;;;;;;22.20;48.14;98234.13;4992759;28;20737;-60
2022/08/09 02:13:18;;;;;;;4.07;2.35;;;;;;;22.28;47.55;98235.88;4992117;28;20186;-61
2022/08/09 02:15:48;;;;;;;6.60;2.25;;;;;;;22.26;47.73;98236.03;4992904;28;20293;-62
2022/08/09 02:18:16;;;;;;;2.83;2.15;;;;;;;22.28;47.54;98236.69;4992956;28;20169;-61
2022/08/09 02:20:45;;;;;;;3.75;2.33;;;;;;;22.25;47.84;98236.25;4992633;28;20178;-61
2022/08/09 02:23:17;;;;;;;2.88;2.15;;;;;;;22.26;47.05;98241.31;4992646;28;20226;-61
2022/08/09 02:25:46;;;;;;;2.90;1.98;;;;;;;22.26;47.54;98232.59;4992876;28;20191;-60
2022/08/09 02:28:24;;;;;;;3.78;2.35;;;;;;;22.25;47.80;98230.97;4992632;28;20223;-61
2022/08/09 02:31:07;;;;;;;2.53;2.20;;;;;;;22.18;47.93;98240.59;4992758;28;20170;-61
2022/08/09 02:33:39;;;;;;;2.67;2.00;;;;;;;22.08;48.13;98242.69;4992525;28;20718;-60
2022/08/09 02:36:09;;;;;;;2.58;2.25;;;;;;;22.05;47.78;98240.41;4991154;28;20586;-62
2022/08/09 02:38:44;;;;;;;3.78;2.10;;;;;;;22.04;47.99;98241.41;4993074;28;20198;-62
2022/08/09 02:41:13;;;;;;;2.83;2.25;;;;;;;21.89;48.33;98246.66;4993039;28;20216;-61
2022/08/09 02:43:41;;;;;;;2.70;2.15;;;;;;;21.95;47.93;98242.47;4992509;28;20229;-61
2022/08/09 02:46:09;;;;;;;2.45;2.20;;;;;;;21.97;48.09;98237.88;4992707;28;20568;-61
2022/08/09 02:48:37;;;;;;;7.53;2.42;;;;;;;21.81;48.06;98235.38;4992432;28;20179;-60
2022/08/09 02:51:05;;;;;;;1.85;1.75;;;;;;;21.93;47.91;98244.50;4992422;28;20203;-60
2022/08/09 02:53:35;;;;;;;3.58;2.10;;;;;;;21.97;47.89;98248.41;4992399;28;20178;-59
2022/08/09 02:56:03;;;;;;;2.55;2.20;;;;;;;21.84;48.29;98238.47;4992606;28;20644;-60
2022/08/09 02:58:32;;;;;;;2.90;2.05;;;;;;;21.84;48.20;98235.00;4992402;28;20175;-61
2022/08/09 03:01:00;;;;;;;3.78;2.00;;;;;;;21.86;48.40;98238.31;4992242;28;20168;-61
2022/08/09 03:03:26;;;;;;;4.10;2.03;;;;;;;21.74;48.42;98237.91;4992308;28;20648;-61
2022/08/09 03:05:55;;;;;;;4.18;2.33;;;;;;;21.78;48.38;98235.72;4992276;28;20175;-61
2022/08/09 03:08:23;;;;;;;2.50;2.08;;;;;;;21.79;47.96;98240.03;4992506;28;20175;-61
2022/08/09 03:10:49;;;;;;;4.35;1.80;;;;;;;21.73;48.14;98244.19;4992257;28;20175;-62
2022/08/09 03:13:16;;;;;;;2.70;1.85;;;;;;;21.72;48.27;98245.19;4992196;28;20179;-60
2022/08/09 03:15:42;;;;;;;3.58;2.67;;;;;;;21.72;48.36;98239.09;4992106;28;20286;-61
2022/08/09 03:18:10;;;;;;;5.55;2.65;;;;;;;21.74;48.67;98243.19;4992407;28;20171;-60
2022/08/09 03:20:37;;;;;;;5.95;2.60;;;;;;;21.75;48.39;98241.38;4992078;28;20577;-60
2022/08/09 03:23:04;;;;;;;2.70;2.05;;;;;;;21.77;48.48;98249.91;4992654;28;20656;-60
2022/08/09 03:25:31;;;;;;;4.45;2.60;;;;;;;21.69;48.85;98247.34;4995719;28;20171;-60
2022/08/09 03:27:57;;;;;;;4.25;2.70;;;;;;;21.47;49.45;98250.78;4995681;28;20186;-61
2022/08/09 03:30:24;;;;;;;2.65;2.20;;;;;;;21.56;49.29;98240.00;4995664;28;20672;-61
2022/08/09 03:32:53;;;;;;;4.15;2.50;;;;;;;21.50;49.18;98221.50;4995529;28;20219;-61
2022/08/09 03:35:19;;;;;;;4.47;2.30;;;;;;;21.50;49.36;98224.13;4995519;28;20195;-61
2022/08/09 03:37:44;;;;;;;4.85;2.13;;;;;;;21.54;48.59;98220.97;4994264;28;20186;-61
2022/08/09 03:40:11;;;;;;;4.10;2.13;;;;;;;21.47;48.68;98216.56;4995645;28;20237;-60
2022/08/09 03:42:36;;;;;;;3.40;2.42;;;;;;;21.63;48.97;98232.22;4995444;28;20201;-61
2022/08/09 03:45:02;;;;;;;2.75;2.40;;;;;;;21.49;48.99;98215.41;4995672;28;20644;-61
2022/08/09 03:47:28;;;;;;;5.10;2.58;;;;;;;21.49;49.04;98222.47;4995400;28;20206;-61
2022/08/09 03:49:55;;;;;;;2.95;2.05;;;;;;;21.46;49.29;98207.03;4995206;28;20179;-61
2022/08/09 03:52:22;;;;;;;3.17;2.20;;;;;;;21.43;49.45;98215.28;4995278;28;20179;-61
2022/08/09 03:54:49;;;;;;;4.53;2.42;;;;;;;21.44;49.25;98211.69;4995129;28;20171;-61
2022/08/09 03:57:16;;;;;;;4.65;2.35;;;;;;;21.47;49.05;98213.94;4995245;28;20179;-61
2022/08/09 03:59:42;;;;;;;3.10;2.80;;;;;;;21.50;48.79;98224.94;4995123;28;20203;-61
2022/08/09 04:02:07;;;;;;;3.25;2.45;;;;;;;21.55;48.75;98217.31;4995048;28;20687;-61
2022/08/09 04:04:34;;;;;;;2.13;2.03;;;;;;;21.72;48.06;98231.19;4995215;28;20172;-62
2022/08/09 04:07:00;;;;;;;3.67;2.40;;;;;;;21.83;47.64;98226.31;4995048;28;20175;-61
2022/08/09 04:09:26;;;;;;;6.00;2.20;;;;;;;21.90;47.61;98221.94;4994963;28;20210;-62
2022/08/09 04:12:10;;;;;;;6.30;2.58;;;;;;;22.05;47.54;98220.16;4994773;28;20179;-61
2022/08/09 04:14:37;;;;;;;2.90;2.10;;;;;;;22.14;47.27;98212.97;4994915;28;20254;-61
2022/08/09 04:17:03;;;;;;;2.42;2.22;;;;;;;22.14;47.38;98213.78;4994804;28;20191;-62
2022/08/09 04:19:29;;;;;;;4.60;2.25;;;;;;;22.20;47.38;98206.97;4995013;28;20175;-61
2022/08/09 04:21:54;;;;;;;5.20;2.17;;;;;;;22.30;47.47;98210.97;4994869;28;20175;-61
2022/08/09 04:24:20;;;;;;;4.00;2.50;;;;;;;22.24;47.22;98208.22;4994669;28;20182;-61
2022/08/09 04:26:45;;;;;;;2.85;2.17;;;;;;;22.22;47.66;98215.50;4994614;28;20198;-62
2022/08/09 04:29:11;;;;;;;3.42;2.50;;;;;;;22.21;47.84;98217.31;4994630;28;20183;-62
2022/08/09 04:31:37;;;;;;;3.97;2.33;;;;;;;22.32;47.48;98221.34;4994560;28;20172;-62
2022/08/09 04:34:02;;;;;;;6.80;2.47;;;;;;;22.41;47.26;98217.59;4994331;28;20662;-61
2022/08/09 04:36:30;;;;;;;3.30;2.10;;;;;;;22.42;47.18;98229.75;4993696;28;20199;-62
2022/08/09 04:39:01;;;;;;;4.57;2.30;;;;;;;22.56;46.64;98223.69;4994408;28;20570;-62
2022/08/09 04:41:27;;;;;;;3.97;2.10;;;;;;;22.64;46.59;98231.50;4994318;28;20222;-62
2022/08/09 04:43:53;;;;;;;2.47;2.22;;;;;;;22.60;46.70;98224.97;4994532;28;20179;-61
2022/08/09 04:46:19;;;;;;;6.10;2.42;;;;;;;22.49;47.42;98230.72;4993008;28;20257;-61
2022/08/09 04:48:44;;;;;;;2.45;2.00;;;;;;;22.55;46.88;98229.97;4994121;28;20644;-61
2022/08/09 04:51:10;;;;;;;2.50;2.25;;;;;;;22.66;46.77;98232.94;4994441;28;20183;-61
2022/08/09 04:53:36;;;;;;;3.03;2.55;;;;;;;22.67;46.63;98225.88;4994331;28;20187;-61
2022/08/09 04:56:01;;;;;;;3.20;2.15;;;;;;;22.82;46.28;98226.63;4994015;28;20210;-61
2022/08/09 04:58:27;;;;;;;4.72;2.22;;;;;;;22.91;46.17;98222.88;4994041;28;20178;-61
2022/08/09 05:00:53;;;;;;;2.45;2.25;;;;;;;22.94;46.23;98231.25;4993900;28;20171;-61
2022/08/09 05:03:18;;;;;;;6.50;2.50;;;;;;;22.89;46.67;98230.19;4993886;28;20282;-62
2022/08/09 05:05:43;;;;;;;9.55;2.33;;;;;;;22.92;46.81;98227.16;4993852;28;20173;-61
2022/08/09 05:08:09;;;;;;;3.17;2.22;;;;;;;22.96;46.47;98237.16;4993837;28;20187;-62
2022/08/09 05:10:34;;;;;;;4.28;2.13;;;;;;;23.04;46.29;98234.41;4993765;28;20179;-61
2022/08/09 05:13:00;;;;;;;5.65;3.92;;;;;;;23.10;46.06;98240.75;4993714;28;20179;-62
2022/08/09 05:15:27;;;;;;;5.93;4.18;;;;;;;23.14;45.91;98234.09;4993788;28;20744;-62
2022/08/09 05:17:52;;;;;;;6.95;4.90;;;;;;;23.10;46.05;98223.09;4993927;28;20194;-62
2022/08/09 05:20:18;;;;;;;3.97;3.60;;;;;;;23.20;45.78;98228.09;4993620;28;20559;-61
2022/08/09 05:22:43;;;;;;;9.40;3.00;;;;;;;23.21;46.36;98232.38;4993867;28;20179;-61
2022/08/09 05:25:09;;;;;;;3.80;3.45;;;;;;;23.22;46.08;98241.91;4992642;28;20310;-61
2022/08/09 05:27:34;;;;;;;3.88;3.47;;;;;;;23.27;46.25;98239.53;4993729;28;20175;-62
2022/08/09 05:30:00;;;;;;;6.47;2.58;;;;;;;23.39;45.04;98232.75;4993438;28;20179;-61
2022/08/09 05:32:25;;;;;;;5.63;2.80;;;;;;;23.58;44.28;98248.75;4993210;28;20194;-60
2022/08/09 05:34:51;;;;;;;4.18;3.78;;;;;;;23.69;44.17;98245.59;4993254;28;20193;-61
2022/08/09 05:37:17;;;;;;;3.45;3.15;;;;;;;23.60;44.78;98214.25;4993426;28;20649;-61
2022/08/09 05:39:42;;;;;;;4.72;3.08;;;;;;;23.78;44.92;98247.09;4993395;28;20194;-62
2022/08/09 05:42:08;;;;;;;4.55;3.75;;;;;;;23.65;45.28;98223.22;4993185;28;20179;-61
2022/08/09 05:44:34;;;;;;;3.92;2.22;;;;;;;23.78;44.39;98240.00;4993241;28;20187;-61
2022/08/09 05:47:00;;;;;;;4.32;2.58;;;;;;;23.89;44.86;98243.16;4992503;28;20186;-61
2022/08/09 05:49:26;;;;;;;3.72;2.45;;;;;;;23.99;44.78;98244.44;4993150;28;20271;-61
2022/08/09 05:51:51;;;;;;;4.80;2.40;;;;;;;24.00;44.65;98234.69;4993091;28;20179;-61
2022/08/09 05:54:16;;;;;;;5.32;2.38;;;;;;;24.02;45.04;98242.22;4993039;28;20258;-61
2022/08/09 05:56:42;;;;;;;3.85;2.15;;;;;;;23.95;45.08;98240.53;4993140;28;20237;-61
2022/08/09 05:59:07;;;;;;;2.85;1.90;;;;;;;23.94;44.81;98233.63;4993184;28;20203;-62
2022/08/09 06:01:33;;;;;;;6.57;2.40;;;;;;;23.96;45.16;98241.38;4993136;28;20542;-62
2022/08/09 06:03:58;;;;;;;4.78;2.10;;;;;;;23.94;45.26;98244.19;4993199;28;20682;-62
2022/08/09 06:06:24;;;;;;;3.85;2.28;;;;;;;23.95;44.95;98235.25;4992860;28;20233;-62
2022/08/09 06:08:50;;;;;;;5.22;2.47;;;;;;;24.02;45.21;98237.94;4993114;28;20175;-63
2022/08/09 06:11:15;;;;;;;2.85;2.00;;;;;;;24.06;45.54;98236.56;4992825;28;20187;-62
2022/08/09 06:13:41;;;;;;;4.35;2.47;;;;;;;24.17;45.25;98235.00;4992738;28;20186;-62
2022/08/09 06:16:06;;;;;;;2.20;2.10;;;;;;;24.37;45.14;98241.22;4991456;28;20673;-62
2022/08/09 06:18:33;;;;;;;3.10;2.40;;;;;;;24.58;44.10;98248.25;4992755;28;20680;-62
2022/08/09 06:20:59;;;;;;;6.05;2.40;;;;;;;24.60;44.32;98241.75;4993270;28;20185;-62
2022/08/09 06:23:29;;;;;;;4.65;2.60;;;;;;;24.71;44.19;98243.84;4992691;28;20183;-62
2022/08/09 06:25:55;;;;;;;6.10;2.40;;;;;;;24.79;43.64;98242.88;4992684;28;20250;-61
2022/08/09 06:28:21;;;;;;;4.13;2.70;;;;;;;24.69;43.94;98245.88;4992657;28;20633;-62
2022/08/09 06:30:46;;;;;;;4.18;2.65;;;;;;;24.76;43.83;98237.94;4991490;28;20179;-62
2022/08/09 06:33:11;;;;;;;2.80;2.60;;;;;;;24.75;43.99;98238.97;4992487;28;20700;-61
2022/08/09 06:35:37;;;;;;;3.30;2.30;;;;;;;24.86;43.57;98235.75;4992615;28;20202;-61
2022/08/09 06:38:02;;;;;;;2.88;2.40;;;;;;;24.97;43.95;98233.34;4992519;28;20179;-61
2022/08/09 06:40:28;;;;;;;2.60;2.40;;;;;;;25.09;43.45;98230.94;4992536;28;20210;-61
2022/08/09 06:42:54;;;;;;;9.07;2.60;;;;;;;25.24;43.14;98244.84;4992513;28;20198;-62
2022/08/09 06:45:19;;;;;;;3.95;2.45;;;;;;;25.22;43.10;98225.66;4992487;28;20178;-64
2022/08/09 06:47:47;;;;;;;4.88;2.28;;;;;;;25.29;43.15;98229.97;4992451;28;20667;-62
2022/08/09 06:50:13;;;;;;;2.42;2.22;;;;;;;25.24;43.03;98221.00;4992638;28;20245;-62
2022/08/09 06:52:44;;;;;;;2.65;2.30;;;;;;;25.39;43.03;98233.06;4992585;28;20179;-62
2022/08/09 06:55:13;;;;;;;2.20;2.00;;;;;;;25.54;43.17;98225.72;4992608;28;20636;-62
2022/08/09 06:57:38;;;;;;;6.25;2.55;;;;;;;25.48;43.05;98221.22;4992411;28;20191;-61
2022/08/09 07:00:05;;;;;;;5.70;2.30;;;;;;;25.66;43.08;98231.25;4996439;28;20567;-62
2022/08/09 07:02:30;;;;;;;6.00;2.50;;;;;;;25.82;42.45;98234.28;4996355;28;20213;-62
2022/08/09 07:04:56;;;;;;;3.50;2.30;;;;;;;25.90;42.15;98236.75;4996181;28;20261;-62
2022/08/09 07:07:21;;;;;;;5.30;2.28;;;;;;;25.92;42.34;98242.69;4996147;28;20629;-61
2022/08/09 07:09:46;;;;;;;3.97;2.20;;;;;;;26.02;42.41;98245.69;4996084;28;20669;-63
2022/08/09 07:12:12;;;;;;;2.97;2.28;;;;;;;26.25;42.27;98238.09;4996245;28;20694;-61
2022/08/09 07:14:38;;;;;;;4.35;2.92;;;;;;;26.34;42.45;98242.19;4996242;28;20270;-61
2022/08/09 07:17:03;;;;;;;3.83;2.38;;;;;;;26.51;42.44;98248.66;4996108;28;20208;-62
2022/08/09 07:19:29;;;;;;;2.75;2.38;;;;;;;26.59;42.46;98243.16;4996127;28;20179;-61
2022/08/09 07:21:54;;;;;;;7.10;2.55;;;;;;;26.76;42.16;98244.31;4996125;28;20210;-62
2022/08/09 07:24:20;;;;;;;4.28;2.65;;;;;;;26.75;41.90;98242.69;4995813;28;20179;-62
2022/08/09 07:26:45;;;;;;;5.50;2.90;;;;;;;26.85;41.92;98237.75;4995717;28;20648;-63
2022/08/09 07:29:11;;;;;;;5.60;2.40;;;;;;;27.04;42.01;98239.47;4995593;28;20179;-63
2022/08/09 07:31:36;;;;;;;3.70;3.40;;;;;;;27.05;41.88;98216.41;4995465;28;20175;-63
2022/08/09 07:34:02;;;;;;;4.10;3.10;;;;;;;27.37;41.00;98248.09;4995489;28;20269;-63
2022/08/09 07:36:29;;;;;;;7.55;3.10;;;;;;;27.52;40.67;98256.56;4995417;28;20586;-62
2022/08/09 07:38:56;;;;;;;6.38;3.10;;;;;;;27.61;39.73;98249.13;4995476;28;20684;-62
2022/08/09 07:41:22;;;;;;;9.02;3.03;;;;;;;27.68;40.36;98239.25;4995424;28;20602;-63
2022/08/09 07:43:47;;;;;;;3.63;3.03;;;;;;;27.75;40.61;98243.50;4995708;28;20187;-63
2022/08/09 07:46:13;;;;;;;4.60;3.47;;;;;;;27.87;40.86;98257.75;4995607;28;20175;-61
2022/08/09 07:48:38;;;;;;;5.05;3.30;;;;;;;27.99;40.79;98257.88;4995388;28;20182;-61
2022/08/09 07:51:03;;;;;;;6.80;3.53;;;;;;;28.09;39.63;98255.50;4995351;28;20182;-61
2022/08/09 07:53:29;;;;;;;4.88;3.60;;;;;;;28.13;39.80;98265.50;4995302;28;20214;-62
2022/08/09 07:55:54;;;;;;;8.00;3.78;;;;;;;28.21;39.64;98267.09;4995151;28;20588;-61
2022/08/09 07:58:20;;;;;;;9.98;3.78;;;;;;;28.21;39.82;98254.56;4995159;28;20171;-62
2022/08/09 08:00:45;;;;;;;6.53;3.60;;;;;;;28.31;40.73;98265.53;4995119;28;20179;-62
2022/08/09 08:03:11;;;;;;;7.47;3.90;;;;;;;28.46;40.45;98262.53;4995008;28;20175;-61
2022/08/09 08:05:36;;;;;;;6.88;4.28;;;;;;;28.51;40.75;98252.84;4995088;28;20179;-62
2022/08/09 08:08:02;;;;;;;9.10;3.92;;;;;;;28.67;36.72;98262.91;4995315;28;20221;-61
2022/08/09 08:10:29;;;;;;;6.80;4.63;;;;;;;28.81;36.02;98261.69;4994497;28;20665;-61
2022/08/09 08:12:54;;;;;;;8.25;5.20;;;;;;;28.91;34.77;98259.31;4994876;28;20185;-62
2022/08/09 08:15:20;;;;;;;7.45;5.10;;;;;;;29.08;35.02;98254.22;4994744;28;20211;-61
2022/08/09 08:17:50;;;;;;;7.90;4.75;;;;;;;29.25;35.78;98250.69;4994828;28;20207;-61
2022/08/09 08:20:16;;;;;;;5.82;4.57;;;;;;;29.42;35.59;98254.34;4994727;28;20652;-61
2022/08/09 08:22:42;;;;;;;8.93;5.38;;;;;;;29.53;35.83;98247.44;4994988;28;20187;-61
2022/08/09 08:25:09;;;;;;;10.07;4.88;;;;;;;29.70;35.96;98259.06;4994741;28;20606;-61
2022/08/09 08:27:34;;;;;;;9.70;5.35;;;;;;;29.88;33.73;98250.97;4994634;28;20175;-61
2022/08/09 08:30:01;;;;;;;8.75;4.88;;;;;;;29.92;33.02;98252.97;4994582;28;20683;-62
2022/08/09 08:32:26;;;;;;;11.98;5.45;;;;;;;30.03;33.67;98254.00;4994540;28;20195;-60
2022/08/09 08:34:53;;;;;;;13.45;5.82;;;;;;;30.13;33.25;98247.06;4994442;28;20182;-61
2022/08/09 08:37:19;;;;;;;6.32;4.60;;;;;;;30.26;30.95;98252.16;4994371;28;20664;-61
2022/08/09 08:39:45;;;;;;;8.25;4.20;;;;;;;30.35;30.21;98250.78;4994672;28;20187;-62
2022/08/09 08:42:12;;;;;;;8.25;4.68;;;;;;;30.39;30.43;98245.78;4994621;28;20171;-62
2022/08/09 08:44:38;;;;;;;7.55;4.78;;;;;;;30.40;30.75;98250.88;4994375;28;20237;-61
2022/08/09 08:47:04;;;;;;;7.88;3.92;;;;;;;30.49;30.37;98241.44;4993044;28;20682;-61
2022/08/09 08:49:30;;;;;;;5.63;3.60;;;;;;;30.58;30.59;98240.03;4994197;28;20183;-61
2022/08/09 08:51:57;;;;;;;7.80;3.55;;;;;;;30.61;30.20;98236.09;4994481;28;20186;-61
2022/08/09 08:54:23;;;;;;;12.52;3.47;;;;;;;30.71;30.10;98242.47;4994236;28;20213;-61
2022/08/09 08:56:49;;;;;;;9.07;3.42;;;;;;;30.74;29.40;98236.69;4994237;28;20203;-61
2022/08/09 08:59:14;;;;;;;8.45;3.65;;;;;;;30.83;29.11;98235.22;4994052;28;20175;-61
2022/08/09 09:01:44;;;;;;;8.95;3.35;;;;;;;30.88;29.54;98232.66;4993925;28;20179;-62
2022/08/09 09:04:11;;;;;;;7.28;3.30;;;;;;;31.01;30.07;98237.72;4993970;28;20179;-62
2022/08/09 09:06:41;;;;;;;4.47;3.20;;;;;;;31.08;29.35;98226.91;4993935;28;20279;-61
2022/08/09 09:09:07;;;;;;;6.18;2.90;;;;;;;31.06;28.68;98229.81;4993880;28;20215;-61
2022/08/09 09:11:35;;;;;;;6.10;2.95;;;;;;;31.09;28.53;98233.88;4994040;28;20179;-61
2022/08/09 09:14:16;;;;;;;7.40;3.20;;;;;;;31.21;28.43;98224.78;4993928;28;20179;-61
2022/08/09 09:16:42;;;;;;;4.07;2.88;;;;;;;31.28;29.24;98232.63;4993728;28;20199;-61
2022/08/09 09:19:10;;;;;;;6.63;3.50;;;;;;;31.29;29.26;98219.03;4993744;28;20183;-61
2022/08/09 09:21:53;;;;;;;3.33;2.72;;;;;;;31.31;28.83;98214.25;4993466;28;20207;-61
2022/08/09 09:24:25;;;;;;;4.65;2.58;;;;;;;31.43;27.94;98214.97;4993733;28;20164;-62
2022/08/09 09:26:58;;;;;;;4.53;2.85;;;;;;;31.54;28.91;98215.97;4994237;28;20160;-61
2022/08/09 09:29:31;;;;;;;6.38;3.08;;;;;;;31.61;29.17;98216.63;4993503;28;20182;-62
2022/08/09 09:31:57;;;;;;;7.10;3.20;;;;;;;31.69;29.04;98214.34;4993192;28;20244;-62
2022/08/09 09:34:23;;;;;;;5.45;3.20;;;;;;;31.74;28.52;98216.31;4993624;28;20210;-62
2022/08/09 09:36:49;;;;;;;6.18;3.03;;;;;;;31.84;29.15;98214.63;4993218;28;20281;-61
2022/08/09 09:39:17;;;;;;;6.70;3.15;;;;;;;31.89;27.92;98212.00;4993583;28;20183;-62
2022/08/09 09:41:43;;;;;;;5.82;3.00;;;;;;;31.97;28.04;98206.25;4993782;28;20187;-62
2022/08/09 09:44:08;;;;;;;8.77;2.92;;;;;;;32.03;27.92;98199.91;4993537;28;20258;-62
2022/08/09 09:46:39;;;;;;;4.53;2.70;;;;;;;32.13;28.51;98202.72;4993761;28;20167;-63
2022/08/09 09:49:08;;;;;;;2.90;2.67;;;;;;;32.18;27.26;98208.16;4993149;28;20186;-62
2022/08/09 09:51:35;;;;;;;3.25;2.90;;;;;;;32.28;27.92;98192.25;4991891;28;20171;-63
2022/08/09 09:54:05;;;;;;;3.88;3.10;;;;;;;32.33;27.47;98181.63;4993184;28;20314;-62
2022/08/09 09:56:39;;;;;;;8.50;3.08;;;;;;;32.31;28.04;98196.31;4993077;28;20685;-63
2022/08/09 09:59:05;;;;;;;6.45;3.28;;;;;;;32.41;27.85;98189.19;4993260;28;20186;-62
2022/08/09 10:01:31;;;;;;;5.80;2.78;;;;;;;32.55;26.81;98192.31;4992992;28;20171;-63
2022/08/09 10:03:56;;;;;;;8.52;3.42;;;;;;;32.62;27.32;98184.91;4993248;28;20234;-63
2022/08/09 10:06:22;;;;;;;3.95;2.83;;;;;;;32.74;27.00;98181.03;4993036;28;20171;-62
2022/08/09 10:08:49;;;;;;;2.72;2.53;;;;;;;32.85;25.80;98190.03;4992864;28;20167;-63
2022/08/09 10:11:18;;;;;;;3.03;2.60;;;;;;;32.91;25.23;98187.16;4992751;28;20175;-62
2022/08/09 10:13:44;;;;;;;6.35;2.55;;;;;;;33.02;25.53;98183.50;4992858;28;20171;-63
2022/08/09 10:16:10;;;;;;;4.13;2.45;;;;;;;33.18;24.86;98187.16;4992735;28;20209;-62
2022/08/09 10:18:36;;;;;;;6.85;2.67;;;;;;;33.19;25.04;98186.91;4993011;28;20210;-62
2022/08/09 10:21:09;;;;;;;4.03;2.50;;;;;;;33.14;25.28;98186.84;4992977;28;20206;-62
2022/08/09 10:23:36;;;;;;;5.15;2.45;;;;;;;33.30;25.26;98194.00;4992649;28;20198;-63
2022/08/09 10:26:02;;;;;;;4.65;2.22;;;;;;;33.33;25.26;98185.44;4992656;28;20198;-63
2022/08/09 10:28:32;;;;;;;2.90;2.55;;;;;;;33.46;25.02;98186.91;4992776;28;20538;-63
2022/08/09 10:30:58;;;;;;;4.80;2.70;;;;;;;33.44;25.44;98189.84;4992696;28;20198;-63
2022/08/09 10:33:24;;;;;;;3.88;2.58;;;;;;;33.33;24.98;98185.44;4995397;28;20214;-64
2022/08/09 10:35:51;;;;;;;4.30;2.90;;;;;;;33.25;25.41;98198.47;4998895;28;20202;-63
2022/08/09 10:38:17;;;;;;;4.03;2.80;;;;;;;33.31;25.55;98194.81;4999257;28;20566;-63
2022/08/09 10:40:44;;;;;;;6.55;3.00;;;;;;;33.45;25.96;98198.72;4998979;28;20175;-63
2022/08/09 10:43:10;;;;;;;5.93;3.20;;;;;;;33.63;25.60;98199.09;4998965;28;20179;-64
2022/08/09 10:45:37;;;;;;;16.08;3.40;;;;;;;33.79;25.04;98183.94;4999266;28;20175;-63
2022/08/09 10:48:12;;;;;;;6.68;3.00;;;;;;;34.07;25.57;98197.03;4999257;28;20183;-63
2022/08/09 10:51:05;;;;;;;8.57;3.00;;;;;;;34.31;24.59;98204.44;4999225;28;20163;-64
2022/08/09 10:53:36;;;;;;;6.25;2.65;;;;;;;34.41;23.73;98201.81;4999214;28;20155;-63
2022/08/09 10:56:32;;;;;;;3.88;2.28;;;;;;;33.96;23.61;98193.47;4998871;28;20253;-62
2022/08/09 10:58:59;;;;;;;3.25;1.90;;;;;;;34.17;23.32;98194.41;4999215;28;20167;-62
2022/08/09 11:01:30;;;;;;;2.70;2.38;;;;;;;34.09;23.28;98202.97;4998955;28;20178;-63
2022/08/09 11:04:11;;;;;;;4.35;2.15;;;;;;;34.23;22.86;98202.25;4999080;28;20262;-63
2022/08/09 11:06:38;;;;;;;2.88;2.10;;;;;;;34.46;22.26;98193.78;4998982;28;20175;-62
2022/08/09 11:09:04;;;;;;;2.88;1.67;;;;;;;34.74;22.51;98201.41;4998935;28;20175;-64
2022/08/09 11:11:58;;;;;;;3.33;2.22;;;;;;;34.74;21.98;98201.41;4981450;28;20648;-64
2022/08/09 11:14:31;;;;;;;3.90;1.75;;;;;;;35.07;21.87;98192.09;4998679;28;20171;-63
2022/08/09 11:16:57;;;;;;;3.95;1.95;;;;;;;35.21;22.79;98199.38;4998900;28;20202;-63
2022/08/09 11:19:53;;;;;;;3.15;1.88;;;;;;;35.13;22.43;98197.22;4997451;28;20183;-63
2022/08/09 11:22:20;;;;;;;6.00;1.73;;;;;;;35.14;21.93;98195.38;4998706;28;20562;-61
2022/08/09 11:25:06;;;;;;;2.63;1.80;;;;;;;35.29;22.26;98190.84;4998694;28;20675;-63
2022/08/09 11:27:37;;;;;;;5.00;2.17;;;;;;;35.28;22.42;98188.41;4997464;28;20189;-62
2022/08/09 11:30:04;;;;;;;8.10;1.90;;;;;;;35.07;22.93;98184.84;4998702;28;20641;-64
2022/08/09 11:32:38;;;;;;;2.85;2.00;;;;;;;34.88;22.53;98189.13;4998566;28;20201;-63
2022/08/09 11:35:19;;;;;;;7.53;2.33;;;;;;;34.46;22.07;98191.09;5013604;28;20261;-62
2022/08/09 11:37:47;;;;;;;3.75;1.85;;;;;;;34.55;21.85;98184.13;4998718;28;20183;-64